createdAt,value
2023-01-07T00:00:07.785Z,99279.06
2023-01-07T00:02:35.953Z,99239.03
2023-01-07T00:05:04.548Z,99202.66
2023-01-07T00:07:32.784Z,99270.41
2023-01-07T00:10:02.470Z,99206.97
2023-01-07T00:12:30.768Z,99249.09
2023-01-07T00:15:01.817Z,99252.66
2023-01-07T00:17:31.133Z,99241.03
2023-01-07T00:19:59.592Z,99240.88
2023-01-07T00:22:28.285Z,99214.78
2023-01-07T00:24:56.662Z,99196.09
2023-01-07T00:27:26.046Z,99257.44
2023-01-07T00:29:54.489Z,99265.31
2023-01-07T00:32:44.324Z,99260.63
2023-01-07T00:35:23.266Z,99258.63
2023-01-07T00:37:56.155Z,99196.84
2023-01-07T00:40:24.734Z,99199.78
2023-01-07T00:43:01.430Z,99163.78
2023-01-07T00:45:32.088Z,99156.06
2023-01-07T00:48:02.994Z,99161.06
2023-01-07T00:50:34.380Z,99164.97
2023-01-07T00:53:03.629Z,99209.97
2023-01-07T00:55:32.978Z,99241.91
2023-01-07T00:58:01.160Z,99178.00
2023-01-07T01:00:29.446Z,99186.31
2023-01-07T01:02:57.822Z,99198.16
2023-01-07T01:05:27.600Z,99173.34
2023-01-07T01:07:56.238Z,99201.84
2023-01-07T01:10:24.584Z,99197.66
2023-01-07T01:12:52.908Z,99179.63
2023-01-07T01:15:21.591Z,99126.56
2023-01-07T01:17:52.501Z,99180.66
2023-01-07T01:20:21.256Z,99150.03
2023-01-07T01:22:50.905Z,99214.44
2023-01-07T01:25:19.231Z,99137.31
2023-01-07T01:27:47.325Z,99171.09
2023-01-07T01:30:15.463Z,99147.09
2023-01-07T01:32:43.456Z,99116.53
2023-01-07T01:35:11.766Z,99207.75
2023-01-07T01:37:39.941Z,99194.13
2023-01-07T01:40:12.382Z,99103.03
2023-01-07T01:42:43.550Z,99106.91
2023-01-07T01:45:13.387Z,99192.88
2023-01-07T01:47:46.474Z,99115.69
2023-01-07T01:50:21.235Z,99092.72
2023-01-07T01:52:56.047Z,99093.69
2023-01-07T01:55:31.253Z,99100.75
2023-01-07T01:58:08.187Z,99094.03
2023-01-07T02:00:37.497Z,99097.16
2023-01-07T02:03:08.329Z,99127.00
2023-01-07T02:05:40.539Z,99088.75
2023-01-07T02:08:08.872Z,99086.38
2023-01-07T02:10:40.103Z,99116.19
2023-01-07T02:13:43.475Z,99110.16
2023-01-07T02:16:36.051Z,99078.97
2023-01-07T02:19:23.192Z,99106.94
2023-01-07T02:22:02.699Z,99126.25
2023-01-07T02:25:10.311Z,99098.25
2023-01-07T02:28:05.647Z,99062.72
2023-01-07T02:30:52.400Z,99079.72
2023-01-07T02:33:30.847Z,99086.47
2023-01-07T02:36:22.783Z,99152.00
2023-01-07T02:39:01.144Z,99116.13
2023-01-07T02:41:39.533Z,99065.16
2023-01-07T02:44:13.599Z,99098.38
2023-01-07T02:46:45.022Z,99111.41
2023-01-07T02:49:17.894Z,99048.53
2023-01-07T02:51:47.211Z,99077.09
2023-01-07T02:54:19.280Z,99041.56
2023-01-07T02:57:12.216Z,99069.28
2023-01-07T03:00:04.865Z,99057.72
2023-01-07T03:02:53.326Z,99022.09
2023-01-07T03:05:37.563Z,99010.69
2023-01-07T03:08:22.724Z,99043.88
2023-01-07T03:10:59.082Z,99072.56
2023-01-07T03:13:33.976Z,99006.25
2023-01-07T03:16:07.415Z,99097.25
2023-01-07T03:18:40.676Z,99001.50
2023-01-07T03:21:16.265Z,99054.53
2023-01-07T03:23:48.964Z,99057.94
2023-01-07T03:26:21.830Z,99051.31
2023-01-07T03:28:53.096Z,99086.59
2023-01-07T03:31:23.764Z,99030.72
2023-01-07T03:33:57.141Z,99036.38
2023-01-07T03:36:32.146Z,99015.41
2023-01-07T03:39:01.486Z,99064.75
2023-01-07T03:41:47.309Z,99015.69
2023-01-07T03:44:15.550Z,98988.03
2023-01-07T03:46:44.335Z,99019.88
2023-01-07T03:49:12.592Z,99071.63
2023-01-07T03:51:42.219Z,98985.50
2023-01-07T03:54:10.539Z,99004.34
2023-01-07T03:56:38.911Z,98966.97
2023-01-07T03:59:06.920Z,98984.53
2023-01-07T04:01:35.142Z,98998.06
2023-01-07T04:04:03.725Z,98972.91
2023-01-07T04:06:32.307Z,99060.47
2023-01-07T04:09:02.051Z,99000.41
2023-01-07T04:11:30.171Z,99001.72
2023-01-07T04:14:00.925Z,98968.84
2023-01-07T04:16:29.251Z,98961.00
2023-01-07T04:18:57.456Z,99012.00
2023-01-07T04:21:25.876Z,99012.94
2023-01-07T04:23:54.122Z,98965.34
2023-01-07T04:26:24.003Z,98986.31
2023-01-07T04:28:52.488Z,98943.53
2023-01-07T04:31:20.792Z,99013.97
2023-01-07T04:33:49.086Z,98997.72
2023-01-07T04:36:17.676Z,98928.06
2023-01-07T04:38:45.782Z,98978.09
2023-01-07T04:41:13.987Z,98957.59
2023-01-07T04:43:43.764Z,98988.28
2023-01-07T04:46:11.939Z,98979.88
2023-01-07T04:48:40.152Z,98988.28
2023-01-07T04:51:08.504Z,99024.81
2023-01-07T04:53:36.772Z,98931.16
2023-01-07T04:56:06.711Z,98965.78
2023-01-07T04:58:35.078Z,98943.59
2023-01-07T05:01:05.497Z,98980.16
2023-01-07T05:03:34.716Z,98944.56
2023-01-07T05:06:03.073Z,98977.50
2023-01-07T05:08:31.732Z,98937.78
2023-01-07T05:11:00.188Z,98919.25
2023-01-07T05:13:28.560Z,98961.81
2023-01-07T05:15:56.787Z,98970.13
2023-01-07T05:18:26.951Z,99001.81
2023-01-07T05:20:55.452Z,98962.63
2023-01-07T05:23:23.543Z,98922.16
2023-01-07T05:25:52.300Z,98929.81
2023-01-07T05:28:20.432Z,98942.72
2023-01-07T05:30:49.135Z,98938.41
2023-01-07T05:33:17.701Z,98956.88
2023-01-07T05:35:48.990Z,98900.81
2023-01-07T05:38:17.468Z,98953.28
2023-01-07T05:40:49.794Z,98938.84
2023-01-07T05:43:18.423Z,98963.41
2023-01-07T05:45:47.148Z,98983.97
2023-01-07T05:48:16.001Z,98926.19
2023-01-07T05:50:44.587Z,98891.38
2023-01-07T05:53:14.414Z,98969.28
2023-01-07T05:55:42.802Z,98953.13
2023-01-07T05:58:11.185Z,98935.59
2023-01-07T06:00:39.626Z,98994.88
2023-01-07T06:03:08.574Z,98956.81
2023-01-07T06:05:37.068Z,98994.94
2023-01-07T06:08:05.514Z,98892.72
2023-01-07T06:10:35.719Z,98951.63
2023-01-07T06:13:04.110Z,98920.38
2023-01-07T06:15:32.574Z,98987.56
2023-01-07T06:18:00.882Z,98910.25
2023-01-07T06:20:34.629Z,98931.09
2023-01-07T06:23:05.117Z,98884.34
2023-01-07T06:25:34.892Z,98916.53
2023-01-07T06:28:03.092Z,98914.28
2023-01-07T06:30:32.462Z,98919.97
2023-01-07T06:33:00.785Z,98916.41
2023-01-07T06:35:29.114Z,98947.66
2023-01-07T06:37:57.436Z,98942.00
2023-01-07T06:40:25.946Z,98930.13
2023-01-07T06:42:55.868Z,98971.13
2023-01-07T06:45:24.127Z,98888.41
2023-01-07T06:47:52.293Z,98948.81
2023-01-07T06:50:21.028Z,98842.38
2023-01-07T06:52:49.140Z,98905.97
2023-01-07T06:55:17.396Z,98884.06
2023-01-07T06:57:46.110Z,98882.38
2023-01-07T07:00:16.709Z,98926.91
2023-01-07T07:02:44.796Z,98877.63
2023-01-07T07:05:13.218Z,98843.09
2023-01-07T07:07:41.459Z,98905.63
2023-01-07T07:10:10.635Z,98929.88
2023-01-07T07:12:39.820Z,98876.16
2023-01-07T07:15:09.577Z,98827.09
2023-01-07T07:17:39.261Z,98865.28
2023-01-07T07:20:08.578Z,98857.56
2023-01-07T07:22:36.927Z,98918.31
2023-01-07T07:25:05.842Z,98853.97
2023-01-07T07:27:34.204Z,98816.97
2023-01-07T07:30:02.308Z,98861.84
2023-01-07T07:32:30.398Z,98852.69
2023-01-07T07:34:59.826Z,98868.78
2023-01-07T07:37:27.893Z,98838.69
2023-01-07T07:39:56.129Z,98823.34
2023-01-07T07:42:24.234Z,98878.63
2023-01-07T07:44:52.340Z,98800.06
2023-01-07T07:47:20.501Z,98811.50
2023-01-07T07:49:48.674Z,98884.06
2023-01-07T07:52:18.224Z,98805.53
2023-01-07T07:54:46.347Z,98805.00
2023-01-07T07:57:14.443Z,98819.28
2023-01-07T07:59:42.597Z,98805.50
2023-01-07T08:02:14.320Z,98783.53
2023-01-07T08:04:42.789Z,98822.28
2023-01-07T08:07:13.064Z,98790.25
2023-01-07T08:09:42.824Z,98851.16
2023-01-07T08:12:11.071Z,98809.47
2023-01-07T08:14:39.434Z,98781.19
2023-01-07T08:17:07.587Z,98815.25
2023-01-07T08:19:35.880Z,98829.38
2023-01-07T08:22:04.372Z,98801.41
2023-01-07T08:24:32.765Z,98833.09
2023-01-07T08:27:02.372Z,98854.44
2023-01-07T08:29:30.595Z,98790.19
2023-01-07T08:31:58.935Z,98764.88
2023-01-07T08:34:27.226Z,98768.44
2023-01-07T08:36:55.734Z,98860.56
2023-01-07T08:39:24.261Z,98756.06
2023-01-07T08:41:52.610Z,98759.03
2023-01-07T08:44:22.358Z,98756.91
2023-01-07T08:46:50.717Z,98804.84
2023-01-07T08:49:19.301Z,98820.28
2023-01-07T08:51:47.479Z,98796.47
2023-01-07T08:54:16.000Z,98809.59
2023-01-07T08:56:44.138Z,98781.41
2023-01-07T08:59:12.168Z,98754.06
2023-01-07T09:01:41.875Z,98809.56
2023-01-07T09:04:10.011Z,98751.53
2023-01-07T09:06:38.147Z,98768.06
2023-01-07T09:09:06.380Z,98782.34
2023-01-07T09:11:34.823Z,98780.22
2023-01-07T09:14:02.931Z,98731.06
2023-01-07T09:16:31.142Z,98804.00
2023-01-07T09:19:00.829Z,98838.00
2023-01-07T09:21:29.136Z,98748.63
2023-01-07T09:23:57.736Z,98763.25
2023-01-07T09:26:27.156Z,98741.00
2023-01-07T09:29:25.147Z,98778.50
2023-01-07T09:41:11.332Z,98731.13
2023-01-07T09:43:17.688Z,98732.25
2023-01-07T09:45:54.467Z,98733.97
2023-01-07T09:49:00.971Z,98721.78
2023-01-07T09:51:38.792Z,98814.31
2023-01-07T09:54:21.912Z,98812.91
2023-01-07T09:56:54.127Z,98713.22
2023-01-07T09:59:22.630Z,98709.34
2023-01-07T10:02:02.090Z,98742.56
2023-01-07T10:04:37.822Z,98699.44
2023-01-07T10:07:19.133Z,98694.31
2023-01-07T10:10:07.778Z,98725.91
2023-01-07T10:13:48.166Z,98780.75
2023-01-07T10:20:39.924Z,98737.97
2023-01-07T10:23:14.102Z,98690.22
2023-01-07T10:25:47.708Z,98681.16
2023-01-07T10:28:22.126Z,98757.44
2023-01-07T10:30:53.211Z,98684.44
2023-01-07T10:33:25.241Z,98692.81
2023-01-07T10:36:05.434Z,98681.91
2023-01-07T10:38:43.279Z,98683.84
2023-01-07T10:41:25.756Z,98644.50
2023-01-07T10:44:08.495Z,98694.22
2023-01-07T10:47:01.671Z,98642.50
2023-01-07T10:49:45.463Z,98628.47
2023-01-07T10:56:10.574Z,98669.97
2023-01-07T10:58:43.117Z,98649.94
2023-01-07T11:01:20.283Z,98657.78
2023-01-07T11:03:52.677Z,98625.91
2023-01-07T11:06:30.199Z,98609.81
2023-01-07T11:08:58.259Z,98662.13
2023-01-07T11:11:27.778Z,98633.09
2023-01-07T11:14:02.867Z,98628.59
2023-01-07T11:16:35.194Z,98658.91
2023-01-07T11:19:07.315Z,98663.97
2023-01-07T11:21:43.594Z,98592.72
2023-01-07T11:24:39.255Z,98663.97
2023-01-07T11:27:16.090Z,98625.09
2023-01-07T11:29:46.273Z,98608.66
2023-01-07T11:32:22.464Z,98657.38
2023-01-07T11:34:58.713Z,98599.78
2023-01-07T11:37:36.502Z,98645.72
2023-01-07T11:40:18.109Z,98586.19
2023-01-07T11:42:51.633Z,98574.13
2023-01-07T11:45:22.354Z,98586.25
2023-01-07T11:47:56.885Z,98619.53
2023-01-07T11:50:31.874Z,98590.50
2023-01-07T11:53:02.035Z,98609.22
2023-01-07T11:55:31.051Z,98595.59
2023-01-07T11:58:28.601Z,98598.97
2023-01-07T12:01:04.281Z,98555.66
2023-01-07T12:03:32.568Z,98542.03
2023-01-07T12:06:07.042Z,98592.41
2023-01-07T12:08:35.742Z,98555.28
2023-01-07T12:11:08.944Z,98524.50
2023-01-07T12:13:42.354Z,98527.38
2023-01-07T12:16:11.506Z,98530.81
2023-01-07T12:18:56.684Z,98559.13
2023-01-07T12:21:44.916Z,98571.72
2023-01-07T12:24:35.887Z,98566.84
2023-01-07T12:27:14.916Z,98563.34
2023-01-07T12:29:54.393Z,98562.50
2023-01-07T12:32:37.294Z,98491.25
2023-01-07T12:35:15.465Z,98526.13
2023-01-07T12:37:47.268Z,98531.06
2023-01-07T12:40:28.245Z,98504.63
2023-01-07T12:43:00.748Z,98463.47
2023-01-07T12:45:35.314Z,98530.81
2023-01-07T12:48:07.779Z,98514.50
2023-01-07T12:50:42.941Z,98494.31
2023-01-07T12:53:18.143Z,98445.13
2023-01-07T12:55:49.598Z,98463.16
2023-01-07T12:58:22.434Z,98455.41
2023-01-07T13:00:58.701Z,98492.91
2023-01-07T13:03:38.999Z,98457.66
2023-01-07T13:06:14.205Z,98442.78
2023-01-07T13:08:47.427Z,98489.13
2023-01-07T13:11:43.386Z,98501.03
2023-01-07T13:14:20.083Z,98478.44
2023-01-07T13:16:49.669Z,98474.94
2023-01-07T13:19:17.995Z,98467.31
2023-01-07T13:21:47.958Z,98511.25
2023-01-07T13:24:55.035Z,98464.50
2023-01-07T13:27:26.047Z,98494.50
2023-01-07T13:30:06.925Z,98516.53
2023-01-07T13:33:06.809Z,98507.28
2023-01-07T13:36:03.353Z,98513.31
2023-01-07T13:38:48.803Z,98507.84
2023-01-07T13:41:41.337Z,98503.75
2023-01-07T13:44:59.339Z,98505.69
2023-01-07T13:47:37.744Z,98501.81
2023-01-07T13:50:07.799Z,98499.78
2023-01-07T13:52:35.957Z,98485.47
2023-01-07T13:55:25.734Z,98500.38
2023-01-07T13:57:53.711Z,98500.41
2023-01-07T14:00:40.998Z,98507.19
2023-01-07T14:03:35.002Z,98492.69
2023-01-07T14:06:42.634Z,98499.22
2023-01-07T14:09:39.496Z,98498.03
2023-01-07T14:12:43.644Z,98491.72
2023-01-07T14:15:34.870Z,98487.97
2023-01-07T14:18:38.265Z,98494.97
2023-01-07T14:21:24.410Z,98489.22
2023-01-07T14:24:03.759Z,98483.44
2023-01-07T14:27:01.795Z,98435.03
2023-01-07T14:29:56.571Z,98484.03
2023-01-07T14:32:32.237Z,98445.16
2023-01-07T14:39:28.008Z,98499.91
2023-01-07T14:43:15.575Z,98507.63
2023-01-07T14:45:57.084Z,98464.28
2023-01-07T14:48:35.310Z,98417.19
2023-01-07T14:51:39.145Z,98452.19
2023-01-07T14:54:41.843Z,98462.88
2023-01-07T14:57:29.379Z,98464.97
2023-01-07T15:00:33.825Z,98448.94
2023-01-07T15:03:27.058Z,98512.56
2023-01-07T15:06:36.642Z,98469.53
2023-01-07T15:09:29.455Z,98451.00
2023-01-07T15:12:25.353Z,98495.81
2023-01-07T15:15:32.175Z,98446.09
2023-01-07T15:18:00.435Z,98470.91
2023-01-07T15:20:40.626Z,98483.56
2023-01-07T15:27:03.079Z,98488.34
2023-01-07T15:29:49.069Z,98440.84
2023-01-07T15:32:28.431Z,98414.69
2023-01-07T15:34:56.767Z,98464.22
2023-01-07T15:37:26.584Z,98418.00
2023-01-07T15:39:57.167Z,98482.59
2023-01-07T15:42:29.122Z,98419.34
2023-01-07T15:44:59.312Z,98456.38
2023-01-07T15:47:41.211Z,98452.72
2023-01-07T15:50:30.576Z,98466.06
2023-01-07T15:53:01.991Z,98412.38
2023-01-07T15:55:33.705Z,98416.59
2023-01-07T15:58:05.268Z,98393.00
2023-01-07T16:00:34.950Z,98463.66
2023-01-07T16:03:04.539Z,98416.59
2023-01-07T16:05:32.956Z,98404.88
2023-01-07T16:08:07.091Z,98385.19
2023-01-07T16:10:36.821Z,98375.91
2023-01-07T16:13:06.821Z,98418.63
2023-01-07T16:15:37.560Z,98377.53
2023-01-07T16:18:19.049Z,98409.47
2023-01-07T16:20:55.992Z,98425.47
2023-01-07T16:23:27.593Z,98395.44
2023-01-07T16:26:03.434Z,98410.13
2023-01-07T16:28:36.261Z,98457.91
2023-01-07T16:31:06.753Z,98406.06
2023-01-07T16:33:36.045Z,98398.09
2023-01-07T16:36:08.196Z,98395.22
2023-01-07T16:38:38.629Z,98425.63
2023-01-07T16:41:07.246Z,98433.19
2023-01-07T16:43:45.596Z,98395.69
2023-01-07T16:46:23.850Z,98395.97
2023-01-07T16:49:21.870Z,98356.28
2023-01-07T16:51:52.534Z,98342.34
2023-01-07T16:54:31.520Z,98371.84
2023-01-07T16:57:01.656Z,98372.91
2023-01-07T16:59:32.944Z,98396.28
2023-01-07T17:02:10.928Z,98341.72
2023-01-07T17:04:39.101Z,98418.41
2023-01-07T17:07:07.936Z,98353.53
2023-01-07T17:09:39.621Z,98351.69
2023-01-07T17:12:07.851Z,98317.84
2023-01-07T17:14:50.358Z,98402.28
2023-01-07T17:17:33.257Z,98408.88
2023-01-07T17:20:15.755Z,98410.31
2023-01-07T17:22:44.143Z,98324.63
2023-01-07T17:25:15.401Z,98358.06
2023-01-07T17:27:49.871Z,98375.19
2023-01-07T17:30:20.265Z,98410.66
2023-01-07T17:32:50.106Z,98408.91
2023-01-07T17:35:26.417Z,98325.28
2023-01-07T17:37:56.861Z,98360.31
2023-01-07T17:40:26.572Z,98328.44
2023-01-07T17:43:12.004Z,98388.06
2023-01-07T17:45:40.205Z,98330.63
2023-01-07T17:48:13.667Z,98334.31
2023-01-07T17:50:42.519Z,98393.38
2023-01-07T17:53:20.722Z,98417.38
2023-01-07T17:55:50.259Z,98369.69
2023-01-07T17:58:26.941Z,98401.00
2023-01-07T18:00:55.591Z,98372.03
2023-01-07T18:03:23.801Z,98420.84
2023-01-07T18:05:52.175Z,98336.06
2023-01-07T18:08:27.799Z,98407.97
2023-01-07T18:11:15.544Z,98391.06
2023-01-07T18:13:43.771Z,98358.81
2023-01-07T18:16:13.710Z,98336.00
2023-01-07T18:18:41.801Z,98353.75
2023-01-07T18:21:13.452Z,98343.09
2023-01-07T18:23:41.732Z,98396.84
2023-01-07T18:26:11.339Z,98359.44
2023-01-07T18:28:39.442Z,98407.44
2023-01-07T18:31:07.641Z,98347.75
2023-01-07T18:33:36.210Z,98328.22
2023-01-07T18:36:04.375Z,98337.97
2023-01-07T18:38:32.392Z,98382.19
2023-01-07T18:41:00.496Z,98328.41
2023-01-07T18:43:30.146Z,98394.41
2023-01-07T18:45:58.411Z,98319.66
2023-01-07T18:48:26.621Z,98362.53
2023-01-07T18:50:54.683Z,98384.19
2023-01-07T18:53:26.731Z,98372.28
2023-01-07T18:56:01.371Z,98402.47
2023-01-07T18:58:31.223Z,98403.94
2023-01-07T19:01:03.483Z,98345.66
2023-01-07T19:03:31.661Z,98312.19
2023-01-07T19:06:00.179Z,98407.75
2023-01-07T19:08:28.256Z,98399.28
2023-01-07T19:10:56.277Z,98405.78
2023-01-07T19:13:24.347Z,98375.91
2023-01-07T19:15:53.778Z,98372.03
2023-01-07T19:18:21.773Z,98323.78
2023-01-07T19:20:49.768Z,98412.13
2023-01-07T19:23:17.823Z,98319.41
2023-01-07T19:25:46.213Z,98402.81
2023-01-07T19:28:14.286Z,98356.25
2023-01-07T19:30:42.231Z,98326.72
2023-01-07T19:33:11.797Z,98368.53
2023-01-07T19:35:39.794Z,98318.78
2023-01-07T19:38:08.044Z,98353.66
2023-01-07T19:40:36.115Z,98338.22
2023-01-07T19:43:04.100Z,98407.34
2023-01-07T19:45:32.052Z,98394.00
2023-01-07T19:48:00.137Z,98388.63
2023-01-07T19:50:29.439Z,98372.66
2023-01-07T19:52:57.419Z,98399.19
2023-01-07T19:55:25.353Z,98401.25
2023-01-07T19:57:53.275Z,98398.22
2023-01-07T20:00:21.194Z,98404.75
2023-01-07T20:02:49.112Z,98375.09
2023-01-07T20:05:17.408Z,98404.66
2023-01-07T20:07:46.757Z,98392.16
2023-01-07T20:10:14.787Z,98398.28
2023-01-07T20:12:42.716Z,98400.97
2023-01-07T20:15:11.369Z,98392.72
2023-01-07T20:17:39.786Z,98385.34
2023-01-07T20:20:10.012Z,98380.88
2023-01-07T20:22:39.804Z,98392.09
2023-01-07T20:25:10.753Z,98387.13
2023-01-07T20:27:39.217Z,98391.84
2023-01-07T20:30:08.917Z,98369.50
2023-01-07T20:32:36.915Z,98359.38
2023-01-07T20:35:05.375Z,98344.28
2023-01-07T20:37:33.378Z,98285.44
2023-01-07T20:40:01.394Z,98297.97
2023-01-07T20:42:34.308Z,98314.97
2023-01-07T20:45:16.581Z,98331.91
2023-01-07T20:47:44.683Z,98305.59
2023-01-07T20:50:15.489Z,98322.75
2023-01-07T20:52:43.695Z,98285.78
2023-01-07T20:55:12.213Z,98334.97
2023-01-07T20:57:41.937Z,98291.22
2023-01-07T21:00:11.765Z,98323.47
2023-01-07T21:02:40.002Z,98371.19
2023-01-07T21:05:08.851Z,98318.53
2023-01-07T21:07:37.049Z,98364.22
2023-01-07T21:10:05.751Z,98287.09
2023-01-07T21:12:33.801Z,98378.16
2023-01-07T21:15:03.327Z,98325.69
2023-01-07T21:17:31.381Z,98350.03
2023-01-07T21:19:59.680Z,98285.28
2023-01-07T21:22:27.696Z,98280.06
2023-01-07T21:24:55.691Z,98253.06
2023-01-07T21:27:24.055Z,98316.25
2023-01-07T21:29:52.514Z,98276.69
2023-01-07T21:32:21.972Z,98275.66
2023-01-07T21:34:50.018Z,98327.25
2023-01-07T21:37:18.034Z,98274.16
2023-01-07T21:39:46.079Z,98283.53
2023-01-07T21:42:14.103Z,98334.38
2023-01-07T21:44:46.683Z,98314.44
2023-01-07T21:47:14.737Z,98319.41
2023-01-07T21:49:44.482Z,98261.94
2023-01-07T21:52:18.981Z,98334.03
2023-01-07T21:54:47.005Z,98316.31
2023-01-07T21:57:15.045Z,98290.03
2023-01-07T21:59:43.107Z,98257.91
2023-01-07T22:02:11.397Z,98302.53
2023-01-07T22:04:40.793Z,98313.50
2023-01-07T22:07:14.957Z,98260.63
2023-01-07T22:09:43.343Z,98271.00
2023-01-07T22:12:12.684Z,98339.75
2023-01-07T22:14:40.942Z,98281.03
2023-01-07T22:17:11.127Z,98317.19
2023-01-07T22:19:39.266Z,98315.31
2023-01-07T22:22:07.960Z,98327.44
2023-01-07T22:24:37.567Z,98295.03
2023-01-07T22:27:05.672Z,98332.44
2023-01-07T22:29:33.767Z,98247.75
2023-01-07T22:32:01.774Z,98300.28
2023-01-07T22:34:30.211Z,98279.16
2023-01-07T22:37:01.318Z,98272.59
2023-01-07T22:39:32.680Z,98232.97
2023-01-07T22:42:07.419Z,98249.25
2023-01-07T22:44:41.605Z,98241.34
2023-01-07T22:47:12.205Z,98281.34
2023-01-07T22:49:41.853Z,98316.13
2023-01-07T22:52:10.860Z,98253.16
2023-01-07T22:54:39.497Z,98247.53
2023-01-07T22:57:11.624Z,98306.03
2023-01-07T22:59:40.136Z,98313.53
2023-01-07T23:02:08.222Z,98275.56
2023-01-07T23:04:36.457Z,98292.03
2023-01-07T23:07:04.665Z,98256.94
2023-01-07T23:09:33.261Z,98300.69
2023-01-07T23:12:01.889Z,98267.13
2023-01-07T23:14:32.816Z,98230.00
2023-01-07T23:17:01.024Z,98283.94
2023-01-07T23:19:31.356Z,98312.41
2023-01-07T23:22:00.922Z,98212.09
2023-01-07T23:24:29.070Z,98303.56
2023-01-07T23:26:59.681Z,98228.22
2023-01-07T23:29:27.873Z,98184.91
2023-01-07T23:31:57.444Z,98284.16
2023-01-07T23:34:25.676Z,98194.72
2023-01-07T23:36:53.704Z,98198.41
2023-01-07T23:39:21.805Z,98241.94
2023-01-07T23:41:49.923Z,98166.16
2023-01-07T23:44:18.479Z,98192.19
2023-01-07T23:46:46.491Z,98257.34
2023-01-07T23:49:16.340Z,98237.31
2023-01-07T23:51:44.540Z,98201.03
2023-01-07T23:54:13.299Z,98245.31
2023-01-07T23:56:42.413Z,98174.44
2023-01-07T23:59:13.394Z,98236.00
